Flugplatz Ernzen (UL)

Hier findest Du alle Informationen zum Flugplatz Ernzen (UL).

Informationen für Piloten zum Flugplatz Ernzen

Hier findest Du alle relevanten Informationen, die Du als Pilot benötigst, um Ernzen anzufliegen.

Flugplatz: Ernzen ICAO-Code: UL Flugplatz
Frequenz Turm: 123,425 Mhz GAFOR Gebiet: -
Frequenz Ground: 123,425 Mhz Mogas: nein
Platzrunde: SO 750 ft Landegebühr: -
Platzhöhe: Sunrise: 03:41 Uhr UTC
Pisten: 06/24 - 500 m x 10 m, GRAS Sunset: 19:39 Uhr UTC

Mitglieder, die in Ernzen fliegen

Flugwetter am Flugplatz Ernzen

Die METAR Information stammen aus EDFH (60.76 km entfernt).

METAR Code:
2019/07/16 07:50
EDFH 160750Z 33006KT 9999 SCT020 14/09 Q1019

Flugschulen am Flugplatz Ernzen

Am Flugplatz Ernzen gibt es leider keine Flugschule.

Benachbarte Flugplätze und Flugschulen

Es gibt 10 weitere Flugplätze in einem Umkreis von 50 km um den Flugplatz Ernzen.

Jetzt anmelden

Passwort vergessen

Umfrage Archiv

Werdet Ihr Euer UL im Zuge der 600 kg MTOW auflasten lassen?

Ja, bei Kosten bis max. 5.000 Euro
50 %
Nein
19.4 %
Ja, unabhängig von den Kosten
13.9 %
Ja, bei Kosten bis max. 7.500 Euro
8.3 %
Ja, bei Kosten bis max. 10.000 Euro
8.3 %
Stimmen: 36 | Diskussion
Anzeige: Roland Aircraft
Statistik Alle Mitglieder

Aktuell sind 36 Besucher online, davon 4 Mitglieder und 32 Gäste.


Mitglieder online:
aviatrix  gofly  skyfool  Carlson 

Anzeige: VFR Sprechfunk Simulator


Anzeige: Pocket FMS